Time;durP1;ratioP1;P1;durP2;ratioP2;P2;SDS_P1;SDS_P2;PMS_P1;PMS_P2;Temp;Humidity;BMP_temperature;BMP_pressure;BME280_temperature;BME280_humidity;BME280_pressure;Samples;Min_cycle;Max_cycle;Signal;HPM_P1;HPM_P2
2022/03/04 00:00:32;;;;;;;18.05;11.27;;;4.60;63.10;;;;;;2067690;28;20030;-87
2022/03/04 00:01:33;;;;;;;18.75;11.88;;;4.60;63.10;;;;;;2082495;28;20202;-87
2022/03/04 00:02:33;;;;;;;18.45;10.82;;;4.60;63.20;;;;;;2097349;28;20041;-87
2022/03/04 00:03:34;;;;;;;17.25;10.55;;;4.60;63.20;;;;;;2066452;28;20530;-87
2022/03/04 00:04:37;;;;;;;17.05;10.98;;;4.60;63.20;;;;;;2064630;28;20073;-86
2022/03/04 00:05:39;;;;;;;16.17;10.52;;;4.60;63.30;;;;;;2088981;28;20499;-86
2022/03/04 00:06:39;;;;;;;17.92;10.80;;;4.60;63.30;;;;;;2050012;28;20073;-86
2022/03/04 00:07:40;;;;;;;15.32;9.77;;;4.50;63.30;;;;;;2073707;28;20046;-87
2022/03/04 00:08:41;;;;;;;17.17;10.80;;;4.50;63.30;;;;;;2081418;28;20117;-87
2022/03/04 00:09:41;;;;;;;17.73;11.13;;;4.50;63.30;;;;;;2055434;28;20102;-87
2022/03/04 00:10:42;;;;;;;16.10;10.73;;;4.50;63.40;;;;;;2063182;28;20534;-87
2022/03/04 00:11:43;;;;;;;16.90;11.00;;;4.50;63.50;;;;;;2106043;28;20040;-87
2022/03/04 00:12:43;;;;;;;18.67;11.57;;;4.50;64.20;;;;;;2097279;28;20035;-87
2022/03/04 00:13:44;;;;;;;19.00;11.30;;;4.50;63.60;;;;;;2097351;28;20457;-86
2022/03/04 00:14:45;;;;;;;17.63;11.27;;;4.50;63.70;;;;;;2080123;28;20405;-87
2022/03/04 00:15:45;;;;;;;18.60;11.00;;;4.50;63.70;;;;;;2039431;28;20094;-87
2022/03/04 00:16:46;;;;;;;20.52;11.82;;;4.40;63.70;;;;;;2043032;28;20108;-86
2022/03/04 00:17:47;;;;;;;17.25;10.77;;;4.40;63.70;;;;;;2080766;28;20065;-87
2022/03/04 00:19:06;;;;;;;17.70;11.00;;;4.50;63.80;;;;;;2062821;28;20198;-86
2022/03/04 00:20:08;;;;;;;17.90;10.82;;;4.40;63.80;;;;;;2067462;28;20032;-87
2022/03/04 00:21:09;;;;;;;17.00;10.98;;;4.40;63.80;;;;;;2061178;28;20072;-87
2022/03/04 00:22:09;;;;;;;16.83;11.15;;;4.40;63.80;;;;;;2061165;28;20046;-86
2022/03/04 00:23:10;;;;;;;18.85;11.52;;;4.40;63.90;;;;;;2084484;28;20065;-87
2022/03/04 00:24:11;;;;;;;19.48;12.05;;;4.40;63.90;;;;;;2076715;28;20043;-86
2022/03/04 00:25:12;;;;;;;19.33;11.20;;;4.40;64.10;;;;;;2062712;28;20039;-87
2022/03/04 00:26:13;;;;;;;17.95;11.02;;;4.40;64.10;;;;;;2059055;28;20653;-87
2022/03/04 00:27:14;;;;;;;18.20;11.40;;;4.30;64.10;;;;;;2060468;28;20047;-86
2022/03/04 00:28:14;;;;;;;19.73;11.07;;;4.30;64.10;;;;;;2060848;28;20059;-87
2022/03/04 00:29:16;;;;;;;16.95;10.43;;;4.30;64.20;;;;;;2061009;28;20039;-86
2022/03/04 00:30:17;;;;;;;16.63;10.70;;;4.30;64.20;;;;;;2088075;28;20036;-86
2022/03/04 00:31:17;;;;;;;18.52;10.90;;;4.30;64.30;;;;;;2080515;28;20048;-86
2022/03/04 00:32:18;;;;;;;19.90;11.73;;;4.30;64.40;;;;;;2071995;28;20393;-86
2022/03/04 00:33:19;;;;;;;16.75;10.88;;;4.30;64.50;;;;;;2070515;28;20132;-86
2022/03/04 00:34:19;;;;;;;15.85;10.10;;;4.20;64.40;;;;;;2058095;28;20036;-87
2022/03/04 00:35:20;;;;;;;19.38;11.43;;;4.20;64.50;;;;;;2076187;28;20106;-86
2022/03/04 00:36:22;;;;;;;17.65;10.70;;;4.20;64.60;;;;;;2061502;28;21443;-88
2022/03/04 00:37:22;;;;;;;15.35;10.00;;;4.20;64.60;;;;;;2090017;28;20081;-85
2022/03/04 00:38:23;;;;;;;17.45;11.00;;;4.20;64.70;;;;;;2068973;28;20536;-86
2022/03/04 00:39:24;;;;;;;17.52;10.65;;;4.20;64.70;;;;;;2064859;28;20037;-86
2022/03/04 00:40:24;;;;;;;16.85;10.88;;;4.20;64.70;;;;;;2062466;28;20103;-86
2022/03/04 00:41:25;;;;;;;16.40;10.50;;;4.20;64.80;;;;;;2062792;28;20092;-87
2022/03/04 00:42:27;;;;;;;16.70;9.48;;;4.10;64.80;;;;;;2061485;28;20492;-86
2022/03/04 00:43:28;;;;;;;19.40;11.10;;;4.10;64.80;;;;;;2092780;28;20484;-87
2022/03/04 00:44:29;;;;;;;18.35;10.88;;;4.10;64.90;;;;;;2063088;28;20042;-86
2022/03/04 00:45:29;;;;;;;19.08;10.90;;;4.10;64.90;;;;;;2055809;28;20043;-87
2022/03/04 00:46:30;;;;;;;17.20;10.93;;;4.10;65.00;;;;;;2084416;28;20115;-86
2022/03/04 00:47:31;;;;;;;16.30;9.95;;;4.10;65.00;;;;;;2062313;28;20089;-87
2022/03/04 00:48:32;;;;;;;18.77;11.05;;;4.10;65.10;;;;;;2061734;28;20088;-86
2022/03/04 00:49:33;;;;;;;16.48;10.18;;;4.10;65.10;;;;;;2059678;28;20043;-86
2022/03/04 00:50:34;;;;;;;18.38;10.75;;;4.10;65.20;;;;;;2069164;28;20549;-87
2022/03/04 00:51:34;;;;;;;16.63;10.70;;;4.10;65.20;;;;;;2061994;28;20076;-86
2022/03/04 00:52:35;;;;;;;17.58;10.50;;;4.10;65.20;;;;;;2062072;28;20050;-86
2022/03/04 00:53:36;;;;;;;18.02;10.43;;;4.10;65.20;;;;;;2085994;28;20029;-86
2022/03/04 00:54:37;;;;;;;17.30;10.43;;;4.00;65.30;;;;;;2086921;28;20848;-86
2022/03/04 00:55:38;;;;;;;17.15;10.27;;;4.10;65.30;;;;;;2082955;28;20043;-87
2022/03/04 00:56:39;;;;;;;18.63;10.85;;;4.00;65.30;;;;;;2057802;28;20157;-86
2022/03/04 00:57:40;;;;;;;19.52;10.98;;;4.00;65.40;;;;;;2051528;28;20447;-87
2022/03/04 00:58:41;;;;;;;19.00;10.75;;;4.00;66.00;;;;;;2044918;28;20115;-86
2022/03/04 00:59:42;;;;;;;18.30;10.40;;;4.00;65.40;;;;;;2059263;28;20054;-86
2022/03/04 01:00:43;;;;;;;20.38;11.00;;;4.00;65.50;;;;;;2062093;28;20034;-87
2022/03/04 01:01:43;;;;;;;19.13;11.30;;;4.00;65.60;;;;;;2090453;28;20375;-87
2022/03/04 01:02:44;;;;;;;18.42;11.05;;;4.00;65.60;;;;;;2067421;28;20043;-86
2022/03/04 01:03:45;;;;;;;16.48;10.35;;;4.00;65.60;;;;;;2069482;28;20402;-86
2022/03/04 01:04:46;;;;;;;18.08;10.90;;;4.00;65.60;;;;;;2069198;28;20127;-86
2022/03/04 01:05:46;;;;;;;18.52;11.13;;;3.90;65.60;;;;;;2059537;28;20165;-87
2022/03/04 01:06:47;;;;;;;18.55;10.80;;;4.00;65.70;;;;;;2049232;28;20039;-86
2022/03/04 01:07:48;;;;;;;19.02;11.38;;;4.00;65.80;;;;;;2080210;28;20426;-87
2022/03/04 01:08:49;;;;;;;17.65;10.98;;;3.90;65.80;;;;;;2056099;28;20129;-86
2022/03/04 01:09:49;;;;;;;15.80;9.98;;;4.00;65.90;;;;;;2056863;28;20043;-86
2022/03/04 01:10:50;;;;;;;20.40;11.60;;;3.90;65.90;;;;;;2065341;28;20863;-86
2022/03/04 01:11:51;;;;;;;18.98;11.20;;;3.90;65.90;;;;;;2052930;28;20121;-87
2022/03/04 01:12:51;;;;;;;17.10;10.40;;;3.90;65.90;;;;;;2058930;28;20069;-86
2022/03/04 01:13:52;;;;;;;18.85;11.10;;;3.90;65.90;;;;;;2070899;28;20540;-86
2022/03/04 01:14:54;;;;;;;19.88;11.60;;;3.90;66.00;;;;;;2062823;28;20484;-87
2022/03/04 01:15:56;;;;;;;17.08;10.40;;;3.90;66.00;;;;;;2055769;28;20042;-87
2022/03/04 01:16:57;;;;;;;19.90;11.02;;;3.90;66.10;;;;;;2062852;28;20073;-87
2022/03/04 01:17:57;;;;;;;17.13;10.05;;;3.90;66.10;;;;;;2056294;28;20031;-87
2022/03/04 01:18:58;;;;;;;19.25;11.40;;;3.90;66.20;;;;;;2055829;28;20161;-87
2022/03/04 01:19:59;;;;;;;16.33;10.50;;;3.80;66.20;;;;;;2056724;28;20039;-86
2022/03/04 01:20:59;;;;;;;15.82;9.50;;;3.90;66.20;;;;;;2070036;28;20039;-86
2022/03/04 01:22:00;;;;;;;17.88;10.75;;;3.90;66.20;;;;;;2078313;28;20108;-86
2022/03/04 01:23:01;;;;;;;18.38;10.85;;;3.90;66.30;;;;;;2076473;28;20478;-86
2022/03/04 01:24:02;;;;;;;20.08;10.90;;;3.90;66.40;;;;;;2058202;28;20046;-86
2022/03/04 01:25:03;;;;;;;17.58;10.48;;;3.80;66.40;;;;;;2061430;28;20428;-86
2022/03/04 01:26:04;;;;;;;18.00;10.40;;;3.90;66.40;;;;;;2058655;28;20393;-86
2022/03/04 01:27:05;;;;;;;17.13;10.93;;;3.80;66.40;;;;;;2082728;28;20071;-86
2022/03/04 01:28:05;;;;;;;16.45;9.77;;;3.80;66.40;;;;;;2056653;28;20039;-87
2022/03/04 01:29:06;;;;;;;17.05;10.30;;;3.80;66.40;;;;;;2076711;28;20033;-86
2022/03/04 01:30:09;;;;;;;16.75;10.18;;;3.80;66.50;;;;;;2062449;28;20053;-86
2022/03/04 01:31:12;;;;;;;18.20;10.35;;;3.80;66.50;;;;;;2061819;28;20033;-86
2022/03/04 01:32:13;;;;;;;18.90;11.48;;;3.80;66.50;;;;;;2074779;28;20459;-86
2022/03/04 01:33:13;;;;;;;19.48;11.27;;;3.80;66.70;;;;;;2073031;28;20036;-86
2022/03/04 01:34:14;;;;;;;18.20;10.77;;;3.80;66.70;;;;;;2073250;28;20037;-87
2022/03/04 01:35:15;;;;;;;18.60;10.73;;;3.80;66.70;;;;;;2066214;28;20035;-87
2022/03/04 01:36:16;;;;;;;17.70;10.38;;;3.80;66.70;;;;;;2059120;28;20069;-86
2022/03/04 01:37:16;;;;;;;19.40;10.82;;;3.70;66.70;;;;;;2098449;28;20029;-87
2022/03/04 01:38:17;;;;;;;17.63;11.07;;;3.70;66.80;;;;;;2080344;28;20530;-87
2022/03/04 01:39:18;;;;;;;19.73;11.05;;;3.70;66.90;;;;;;2064562;28;20051;-87
2022/03/04 01:40:18;;;;;;;20.23;10.88;;;3.70;66.90;;;;;;2055788;28;20078;-86
2022/03/04 01:41:19;;;;;;;20.60;12.05;;;3.70;67.00;;;;;;2056263;28;20137;-85
2022/03/04 01:42:20;;;;;;;20.27;11.60;;;3.70;67.00;;;;;;2062241;28;20680;-86
2022/03/04 01:43:20;;;;;;;19.60;11.57;;;3.70;67.10;;;;;;2077797;28;20096;-86
2022/03/04 01:44:21;;;;;;;19.35;11.13;;;3.70;67.20;;;;;;2075126;28;20137;-86
2022/03/04 01:45:22;;;;;;;19.27;12.00;;;3.70;67.20;;;;;;2084207;28;20379;-86
2022/03/04 01:46:30;;;;;;;19.40;11.85;;;3.70;67.20;;;;;;2059056;28;20045;-85
2022/03/04 01:47:31;;;;;;;21.30;12.15;;;3.70;67.30;;;;;;2049626;28;20039;-86
2022/03/04 01:48:32;;;;;;;19.00;11.65;;;3.70;67.30;;;;;;2074579;28;20055;-86
2022/03/04 01:49:33;;;;;;;18.75;10.88;;;3.70;67.30;;;;;;2070144;28;20137;-86
2022/03/04 01:50:33;;;;;;;21.27;12.25;;;3.70;67.40;;;;;;2061856;28;20053;-86
2022/03/04 01:51:34;;;;;;;18.30;10.70;;;3.70;67.40;;;;;;2061398;28;20062;-87
2022/03/04 01:52:35;;;;;;;17.02;10.98;;;3.70;67.50;;;;;;2078705;28;20477;-86
2022/03/04 01:53:37;;;;;;;18.83;10.70;;;3.70;67.50;;;;;;2083265;28;20390;-86
2022/03/04 01:54:37;;;;;;;20.00;10.70;;;3.60;67.40;;;;;;2077380;28;20078;-86
2022/03/04 01:55:38;;;;;;;19.35;11.27;;;3.60;67.50;;;;;;2069091;28;20421;-87
2022/03/04 01:56:39;;;;;;;17.90;10.27;;;3.60;67.60;;;;;;2061679;28;20051;-86
2022/03/04 01:57:40;;;;;;;18.70;10.48;;;3.60;67.60;;;;;;2077042;28;20038;-86
2022/03/04 01:58:41;;;;;;;17.75;10.05;;;3.60;67.60;;;;;;2074476;28;20677;-86
2022/03/04 01:59:42;;;;;;;17.75;10.32;;;3.60;67.70;;;;;;2053377;28;20062;-87
2022/03/04 02:00:42;;;;;;;17.38;9.40;;;3.60;67.70;;;;;;2057835;28;20035;-86
2022/03/04 02:01:43;;;;;;;19.70;10.80;;;3.60;67.70;;;;;;2065625;28;20095;-86
2022/03/04 02:02:45;;;;;;;17.58;11.32;;;3.60;67.80;;;;;;2043445;28;20044;-86
2022/03/04 02:03:46;;;;;;;17.10;10.38;;;3.50;67.80;;;;;;2042363;28;20391;-86
2022/03/04 02:04:50;;;;;;;18.05;9.93;;;3.50;67.80;;;;;;2071905;28;20031;-87
2022/03/04 02:05:51;;;;;;;17.75;10.27;;;3.50;67.90;;;;;;2058125;28;20110;-86
2022/03/04 02:06:52;;;;;;;19.33;11.15;;;3.50;68.00;;;;;;2056675;28;20436;-86
2022/03/04 02:07:54;;;;;;;19.30;11.27;;;3.50;68.10;;;;;;2056103;28;20034;-86
2022/03/04 02:08:54;;;;;;;19.52;10.77;;;3.50;68.70;;;;;;2059717;28;20041;-86
2022/03/04 02:09:55;;;;;;;17.55;10.60;;;3.50;68.10;;;;;;2060949;28;20707;-86
2022/03/04 02:10:56;;;;;;;17.17;10.32;;;3.50;68.10;;;;;;2061559;28;20049;-87
2022/03/04 02:11:56;;;;;;;16.75;10.43;;;3.50;68.20;;;;;;2067290;28;20039;-87
2022/03/04 02:12:57;;;;;;;17.27;10.30;;;3.50;68.20;;;;;;2060803;28;20039;-87
2022/03/04 02:13:58;;;;;;;17.52;10.50;;;3.40;68.20;;;;;;2059079;28;20169;-87
2022/03/04 02:14:58;;;;;;;18.00;10.35;;;3.40;68.80;;;;;;2073773;28;20510;-87
2022/03/04 02:15:59;;;;;;;19.27;10.95;;;3.40;68.20;;;;;;2068106;28;20037;-87
2022/03/04 02:17:00;;;;;;;17.50;10.65;;;3.40;68.30;;;;;;2055916;28;20045;-86
2022/03/04 02:18:08;;;;;;;19.13;10.88;;;3.40;68.40;;;;;;2057084;28;20051;-86
2022/03/04 02:19:09;;;;;;;18.85;10.38;;;3.40;68.40;;;;;;2059984;28;20039;-86
2022/03/04 02:20:10;;;;;;;20.70;11.05;;;3.40;68.40;;;;;;2075500;28;20062;-86
2022/03/04 02:21:13;;;;;;;17.90;10.18;;;3.40;68.50;;;;;;2075418;28;20049;-87
2022/03/04 02:22:14;;;;;;;18.35;10.52;;;3.40;68.50;;;;;;2090717;28;20067;-86
2022/03/04 02:23:15;;;;;;;18.60;10.40;;;3.40;68.60;;;;;;2088740;28;20546;-86
2022/03/04 02:24:17;;;;;;;17.98;10.32;;;3.30;68.60;;;;;;2091321;28;20041;-86
2022/03/04 02:25:17;;;;;;;17.73;10.35;;;3.30;68.60;;;;;;2088755;28;20045;-87
2022/03/04 02:26:18;;;;;;;15.85;9.32;;;3.30;68.60;;;;;;2085427;28;20037;-87
2022/03/04 02:27:19;;;;;;;18.67;10.73;;;3.30;68.70;;;;;;2090642;28;22617;-87
2022/03/04 02:28:21;;;;;;;15.40;9.48;;;3.30;68.80;;;;;;2090364;28;20765;-87
2022/03/04 02:29:22;;;;;;;17.63;10.20;;;3.30;69.40;;;;;;2100314;28;20100;-87
2022/03/04 02:30:23;;;;;;;17.30;9.95;;;3.30;68.80;;;;;;2096697;28;20433;-86
2022/03/04 02:31:24;;;;;;;17.58;10.68;;;3.30;68.90;;;;;;2095968;28;20053;-87
2022/03/04 02:32:24;;;;;;;18.52;10.55;;;3.30;69.00;;;;;;2090538;28;20474;-87
2022/03/04 02:33:25;;;;;;;19.00;11.10;;;3.30;69.00;;;;;;2091287;28;20044;-86
2022/03/04 02:34:26;;;;;;;16.45;9.98;;;3.30;69.00;;;;;;2095053;28;20067;-86
2022/03/04 02:35:29;;;;;;;16.70;10.48;;;3.30;69.00;;;;;;2086927;28;20048;-87
2022/03/04 02:36:30;;;;;;;22.27;11.18;;;3.30;69.10;;;;;;2089750;28;20406;-86
2022/03/04 02:37:31;;;;;;;18.63;11.18;;;3.30;69.20;;;;;;2082795;28;20037;-87
2022/03/04 02:38:31;;;;;;;19.65;11.40;;;3.30;69.40;;;;;;2083784;28;20084;-86
2022/03/04 02:39:32;;;;;;;18.15;10.88;;;3.20;69.20;;;;;;2088110;28;20045;-86
2022/03/04 02:40:33;;;;;;;20.33;11.05;;;3.20;69.30;;;;;;2089117;28;20039;-87
2022/03/04 02:41:35;;;;;;;17.85;10.48;;;3.20;69.20;;;;;;2089168;28;20041;-86
2022/03/04 02:42:36;;;;;;;18.67;10.13;;;3.20;69.30;;;;;;2089881;28;20033;-86
2022/03/04 02:43:36;;;;;;;18.98;10.75;;;3.20;69.30;;;;;;2088616;28;20398;-86
2022/03/04 02:44:37;;;;;;;14.65;9.55;;;3.20;69.30;;;;;;2083485;28;20051;-85
2022/03/04 02:45:38;;;;;;;16.27;9.65;;;3.20;70.00;;;;;;2082224;28;20033;-85
2022/03/04 02:46:38;;;;;;;17.52;9.32;;;3.20;69.40;;;;;;2082914;28;20419;-86
2022/03/04 02:47:39;;;;;;;17.33;10.13;;;3.20;69.50;;;;;;2091048;28;20087;-86
2022/03/04 02:48:40;;;;;;;16.88;9.63;;;3.20;69.50;;;;;;2101013;28;20142;-86
2022/03/04 02:49:41;;;;;;;15.80;9.35;;;3.10;69.40;;;;;;2097846;28;20122;-87
2022/03/04 02:50:41;;;;;;;16.85;9.70;;;3.10;69.40;;;;;;2092864;28;20049;-86
2022/03/04 02:51:42;;;;;;;18.55;10.52;;;3.10;69.60;;;;;;2092873;28;20051;-86
2022/03/04 02:52:43;;;;;;;18.13;10.68;;;3.10;69.60;;;;;;2096689;28;20028;-86
2022/03/04 02:53:43;;;;;;;16.95;10.07;;;3.10;69.60;;;;;;2098468;28;20131;-86
2022/03/04 02:54:44;;;;;;;17.40;10.27;;;3.10;70.30;;;;;;2098589;28;21078;-86
2022/03/04 02:55:45;;;;;;;17.27;9.80;;;3.10;69.70;;;;;;2096607;28;20040;-86
2022/03/04 02:56:45;;;;;;;15.57;9.45;;;3.10;69.80;;;;;;2098410;28;20051;-86
2022/03/04 02:57:47;;;;;;;17.40;9.35;;;3.10;69.80;;;;;;2089448;28;20029;-86
2022/03/04 02:58:48;;;;;;;14.05;8.68;;;3.10;69.80;;;;;;2088526;28;20103;-86
2022/03/04 02:59:48;;;;;;;17.88;10.43;;;3.10;69.90;;;;;;2094820;28;20037;-87
2022/03/04 03:00:50;;;;;;;16.90;10.07;;;3.00;69.80;;;;;;2099530;28;20036;-86
2022/03/04 03:01:50;;;;;;;17.00;9.75;;;3.00;69.90;;;;;;2097750;28;20028;-87
2022/03/04 03:02:51;;;;;;;18.27;10.30;;;3.00;70.60;;;;;;2089286;28;20041;-87
2022/03/04 03:03:52;;;;;;;17.83;9.65;;;3.00;70.00;;;;;;2088883;28;20037;-87
2022/03/04 03:04:52;;;;;;;15.98;9.57;;;3.00;70.10;;;;;;2089266;28;20124;-86
2022/03/04 03:05:53;;;;;;;18.00;10.52;;;3.00;70.10;;;;;;2087669;28;20201;-86
2022/03/04 03:06:54;;;;;;;17.23;9.85;;;3.00;70.10;;;;;;2095787;28;20032;-87
2022/03/04 03:07:55;;;;;;;15.95;9.65;;;3.00;70.20;;;;;;2101266;28;20124;-86
2022/03/04 03:08:55;;;;;;;18.25;10.20;;;3.00;70.30;;;;;;2096436;28;20032;-87
2022/03/04 03:09:56;;;;;;;17.05;9.70;;;3.00;70.30;;;;;;2098100;28;20517;-86
2022/03/04 03:10:57;;;;;;;18.60;9.88;;;3.00;70.30;;;;;;2089332;28;20079;-87
2022/03/04 03:11:58;;;;;;;15.85;9.60;;;3.00;70.40;;;;;;2089310;28;20049;-86
2022/03/04 03:12:59;;;;;;;16.80;9.70;;;2.90;70.40;;;;;;2089676;28;20029;-86
2022/03/04 03:13:59;;;;;;;18.70;10.50;;;2.90;70.40;;;;;;2088257;28;20048;-86
2022/03/04 03:15:00;;;;;;;18.80;10.77;;;2.90;70.40;;;;;;2098333;28;20052;-87
2022/03/04 03:16:01;;;;;;;17.20;10.43;;;2.90;70.50;;;;;;2097849;28;20158;-87
2022/03/04 03:17:01;;;;;;;17.90;10.82;;;2.90;70.60;;;;;;2098157;28;20109;-87
2022/03/04 03:18:02;;;;;;;17.73;10.05;;;2.90;70.60;;;;;;2097001;28;20043;-86
2022/03/04 03:19:03;;;;;;;16.17;9.15;;;2.90;70.60;;;;;;2099282;28;20437;-86
2022/03/04 03:20:07;;;;;;;16.15;9.43;;;2.90;70.70;;;;;;2082148;28;20090;-86
2022/03/04 03:21:07;;;;;;;18.50;10.07;;;2.90;70.70;;;;;;2074898;28;20104;-87
2022/03/04 03:22:09;;;;;;;16.17;9.20;;;2.80;70.80;;;;;;2076368;28;20049;-86
2022/03/04 03:23:10;;;;;;;16.70;9.90;;;2.80;70.80;;;;;;2063735;28;20040;-86
2022/03/04 03:24:11;;;;;;;16.95;9.70;;;2.80;70.80;;;;;;2057876;28;20046;-86
2022/03/04 03:25:12;;;;;;;15.15;9.00;;;2.80;70.80;;;;;;2056884;28;20066;-86
2022/03/04 03:26:12;;;;;;;15.95;9.45;;;2.80;70.90;;;;;;2046523;28;20569;-86
2022/03/04 03:27:14;;;;;;;17.52;9.57;;;2.80;70.90;;;;;;2042436;28;20048;-86
2022/03/04 03:28:14;;;;;;;18.25;9.95;;;2.80;70.90;;;;;;2075545;28;20453;-87
2022/03/04 03:29:15;;;;;;;16.00;9.02;;;2.80;70.90;;;;;;2067151;28;20037;-86
2022/03/04 03:30:16;;;;;;;14.20;8.93;;;2.80;71.00;;;;;;2079207;28;20043;-86
2022/03/04 03:31:16;;;;;;;17.05;9.80;;;2.80;71.00;;;;;;2061417;28;20109;-86
2022/03/04 03:32:17;;;;;;;14.27;8.40;;;2.80;71.20;;;;;;2073731;28;20043;-86
2022/03/04 03:33:18;;;;;;;17.45;10.07;;;2.70;71.10;;;;;;2078816;28;20536;-86
2022/03/04 03:34:18;;;;;;;15.48;8.80;;;2.80;71.30;;;;;;2061176;28;20047;-86
2022/03/04 03:35:19;;;;;;;16.17;9.68;;;2.70;71.20;;;;;;2061761;28;20126;-86
2022/03/04 03:36:20;;;;;;;17.48;9.93;;;2.70;71.20;;;;;;2075783;28;20039;-87
2022/03/04 03:37:21;;;;;;;16.63;9.68;;;2.70;71.30;;;;;;2070619;28;20412;-86
2022/03/04 03:38:22;;;;;;;15.02;9.02;;;2.70;71.30;;;;;;2081672;28;20049;-86
2022/03/04 03:39:23;;;;;;;15.55;9.25;;;2.70;71.30;;;;;;2061174;28;20058;-86
2022/03/04 03:40:24;;;;;;;15.70;9.35;;;2.70;71.40;;;;;;2077321;28;20130;-86
2022/03/04 03:41:25;;;;;;;16.85;9.25;;;2.70;71.50;;;;;;2080278;28;20056;-86
2022/03/04 03:42:25;;;;;;;16.60;9.65;;;2.70;71.50;;;;;;2060896;28;20050;-86
2022/03/04 03:43:26;;;;;;;16.30;9.10;;;2.60;71.50;;;;;;2084557;28;20126;-86
2022/03/04 03:44:26;;;;;;;17.23;9.98;;;2.60;71.50;;;;;;2068544;28;20057;-86
2022/03/04 03:45:27;;;;;;;17.10;9.88;;;2.60;71.60;;;;;;2084714;28;20365;-86
2022/03/04 03:46:28;;;;;;;16.52;10.07;;;2.60;71.60;;;;;;2063707;28;20045;-86
2022/03/04 03:47:28;;;;;;;18.58;10.35;;;2.60;71.70;;;;;;2062503;28;20046;-86
2022/03/04 03:48:29;;;;;;;16.20;9.43;;;2.60;71.70;;;;;;2057932;28;20057;-86
2022/03/04 03:49:30;;;;;;;16.05;9.90;;;2.60;71.70;;;;;;2078900;28;20033;-86
2022/03/04 03:50:31;;;;;;;17.95;9.98;;;2.60;71.90;;;;;;2084181;28;20149;-86
2022/03/04 03:51:33;;;;;;;16.25;9.50;;;2.60;71.90;;;;;;2072603;28;20530;-87
2022/03/04 03:52:34;;;;;;;17.85;9.95;;;2.60;71.90;;;;;;2057394;28;20036;-87
2022/03/04 03:53:34;;;;;;;16.67;9.57;;;2.60;72.00;;;;;;2072914;28;20123;-86
2022/03/04 03:54:35;;;;;;;16.92;9.30;;;2.60;72.00;;;;;;2081284;28;20038;-86
2022/03/04 03:55:35;;;;;;;16.55;8.68;;;2.50;71.90;;;;;;2090513;28;20043;-86
2022/03/04 03:56:36;;;;;;;16.15;9.20;;;2.50;72.00;;;;;;2060655;28;20579;-86
2022/03/04 03:57:37;;;;;;;15.55;9.18;;;2.50;72.00;;;;;;2070750;28;20655;-86
2022/03/04 03:58:37;;;;;;;18.30;9.30;;;2.50;72.10;;;;;;2068911;28;20095;-86
2022/03/04 03:59:38;;;;;;;17.02;9.68;;;2.50;72.20;;;;;;2078359;28;20038;-86
2022/03/04 04:00:39;;;;;;;15.43;9.45;;;2.50;72.20;;;;;;2060607;28;20035;-86
2022/03/04 04:01:42;;;;;;;16.10;9.27;;;2.50;72.30;;;;;;2078300;28;20414;-86
2022/03/04 04:02:42;;;;;;;16.48;9.25;;;2.50;72.30;;;;;;2065692;28;20053;-86
2022/03/04 04:03:43;;;;;;;16.10;9.13;;;2.50;72.40;;;;;;2082683;28;20438;-86
2022/03/04 04:04:44;;;;;;;17.38;10.07;;;2.40;72.30;;;;;;2076750;28;20074;-86
2022/03/04 04:05:44;;;;;;;19.00;10.05;;;2.50;72.40;;;;;;2054235;28;20497;-86
2022/03/04 04:06:45;;;;;;;18.95;10.27;;;2.50;72.50;;;;;;2044297;28;20136;-86
2022/03/04 04:07:45;;;;;;;17.00;9.55;;;2.50;72.50;;;;;;2064219;28;20577;-86
2022/03/04 04:08:46;;;;;;;17.23;9.98;;;2.40;72.50;;;;;;2083591;28;20040;-86
2022/03/04 04:09:47;;;;;;;17.05;9.82;;;2.40;72.60;;;;;;2071152;28;20470;-86
2022/03/04 04:10:47;;;;;;;16.40;9.50;;;2.40;72.60;;;;;;2065102;28;20043;-86
2022/03/04 04:11:48;;;;;;;16.65;9.85;;;2.40;72.60;;;;;;2064532;28;20134;-85
2022/03/04 04:12:48;;;;;;;17.38;9.35;;;2.40;72.70;;;;;;2073571;28;20050;-87
2022/03/04 04:13:49;;;;;;;15.18;8.95;;;2.40;72.70;;;;;;2058816;28;20495;-86
2022/03/04 04:14:50;;;;;;;15.93;9.13;;;2.40;72.80;;;;;;2085127;28;20038;-86
2022/03/04 04:15:51;;;;;;;15.18;9.18;;;2.40;72.80;;;;;;2058475;28;20039;-86
2022/03/04 04:16:52;;;;;;;17.85;10.25;;;2.40;72.80;;;;;;2061321;28;20070;-86
2022/03/04 04:17:53;;;;;;;16.65;9.50;;;2.30;72.90;;;;;;2067227;28;20493;-86
2022/03/04 04:18:56;;;;;;;17.00;10.15;;;2.30;72.90;;;;;;2081520;28;20430;-86
2022/03/04 04:19:57;;;;;;;16.73;9.43;;;2.30;73.00;;;;;;2061901;28;21849;-86
2022/03/04 04:20:57;;;;;;;17.42;9.63;;;2.30;73.00;;;;;;2072000;28;20038;-86
2022/03/04 04:21:59;;;;;;;15.50;9.35;;;2.30;73.10;;;;;;2057452;28;20621;-86
2022/03/04 04:23:00;;;;;;;16.92;9.88;;;2.30;73.20;;;;;;2064015;28;20043;-86
2022/03/04 04:24:00;;;;;;;16.55;9.80;;;2.30;73.20;;;;;;2079348;28;20028;-86
2022/03/04 04:25:01;;;;;;;17.40;9.52;;;2.30;73.20;;;;;;2064525;28;20039;-87
2022/03/04 04:26:05;;;;;;;17.77;9.73;;;2.30;73.20;;;;;;2068978;28;20481;-87
2022/03/04 04:27:06;;;;;;;16.55;9.35;;;2.30;73.30;;;;;;2082231;28;20048;-86
2022/03/04 04:28:06;;;;;;;15.80;9.88;;;2.30;73.40;;;;;;2062872;28;20415;-86
2022/03/04 04:29:07;;;;;;;17.92;9.68;;;2.30;73.40;;;;;;2068465;28;20116;-86
2022/03/04 04:30:09;;;;;;;17.20;10.10;;;2.30;73.50;;;;;;2049616;28;20035;-86
2022/03/04 04:31:09;;;;;;;17.63;9.98;;;2.30;73.50;;;;;;2078569;28;20472;-86
2022/03/04 04:32:10;;;;;;;18.40;9.43;;;2.20;73.50;;;;;;2059611;28;20043;-86
2022/03/04 04:33:11;;;;;;;17.65;10.13;;;2.20;73.50;;;;;;2055836;28;20093;-86
2022/03/04 04:34:11;;;;;;;17.80;10.80;;;2.20;73.70;;;;;;2062080;28;20039;-86
2022/03/04 04:35:13;;;;;;;19.42;10.73;;;2.20;73.80;;;;;;2062530;28;20030;-87
2022/03/04 04:36:13;;;;;;;18.55;10.98;;;2.20;73.80;;;;;;2069307;28;20235;-86
2022/03/04 04:37:14;;;;;;;16.77;10.30;;;2.20;73.80;;;;;;2065653;28;20112;-86
2022/03/04 04:38:14;;;;;;;19.23;10.75;;;2.10;73.90;;;;;;2082914;28;20482;-86
2022/03/04 04:39:15;;;;;;;18.58;10.40;;;2.20;73.90;;;;;;2074434;28;20043;-86
2022/03/04 04:40:16;;;;;;;19.63;11.02;;;2.20;73.90;;;;;;2084686;28;20044;-86
2022/03/04 04:41:17;;;;;;;17.83;10.68;;;2.10;73.90;;;;;;2069066;28;20033;-86
2022/03/04 04:42:17;;;;;;;17.42;10.40;;;2.10;73.90;;;;;;2079670;28;20041;-86
2022/03/04 04:43:18;;;;;;;17.33;10.05;;;2.10;74.00;;;;;;2079785;28;20157;-86
2022/03/04 04:44:19;;;;;;;15.90;9.60;;;2.10;74.10;;;;;;2081026;28;20121;-86
2022/03/04 04:45:19;;;;;;;18.73;10.60;;;2.10;74.10;;;;;;2092463;28;20033;-86
2022/03/04 04:46:20;;;;;;;17.27;10.75;;;2.10;74.10;;;;;;2082121;28;20423;-86
2022/03/04 04:47:20;;;;;;;19.52;11.10;;;2.10;74.20;;;;;;2080467;28;20130;-86
2022/03/04 04:48:21;;;;;;;17.10;9.40;;;2.10;74.30;;;;;;2059683;28;20035;-86
2022/03/04 04:49:22;;;;;;;19.15;10.63;;;2.10;74.30;;;;;;2061823;28;20047;-86
2022/03/04 04:50:22;;;;;;;16.75;9.57;;;2.10;74.30;;;;;;2056765;28;20040;-86
2022/03/04 04:51:23;;;;;;;19.58;11.05;;;2.10;74.30;;;;;;2049551;28;20043;-86
2022/03/04 04:52:23;;;;;;;17.48;10.73;;;2.00;74.30;;;;;;2056370;28;20129;-87
2022/03/04 04:53:25;;;;;;;17.95;10.13;;;2.10;74.40;;;;;;2062046;28;20041;-86
2022/03/04 04:54:25;;;;;;;20.25;10.48;;;2.10;74.50;;;;;;2082795;28;20036;-86
2022/03/04 04:55:26;;;;;;;18.17;10.40;;;2.00;74.60;;;;;;2074396;28;20092;-86
2022/03/04 04:56:27;;;;;;;16.90;9.45;;;2.00;74.60;;;;;;2073344;28;20491;-86
2022/03/04 04:57:28;;;;;;;18.08;10.23;;;2.00;74.60;;;;;;2083827;28;20131;-86
2022/03/04 04:58:28;;;;;;;16.50;9.40;;;2.00;74.70;;;;;;2051740;28;20517;-86
2022/03/04 04:59:30;;;;;;;19.17;10.07;;;2.00;74.70;;;;;;2048072;28;20050;-86
2022/03/04 05:00:30;;;;;;;17.92;10.93;;;2.00;74.70;;;;;;2042636;28;20129;-86
2022/03/04 05:01:31;;;;;;;17.60;10.35;;;2.00;74.90;;;;;;2043872;28;20086;-86
2022/03/04 05:02:31;;;;;;;19.20;10.55;;;2.00;74.90;;;;;;2065903;28;20066;-86
2022/03/04 05:03:32;;;;;;;18.33;10.93;;;1.90;74.90;;;;;;2091385;28;20059;-86
2022/03/04 05:04:33;;;;;;;17.58;10.02;;;1.90;74.90;;;;;;2073676;28;20039;-86
2022/03/04 05:05:34;;;;;;;16.60;10.18;;;1.90;74.90;;;;;;2084145;28;20055;-86
2022/03/04 05:06:35;;;;;;;17.55;10.00;;;1.90;75.00;;;;;;2059575;28;20499;-86
2022/03/04 05:07:36;;;;;;;16.98;10.07;;;1.90;75.00;;;;;;2062440;28;20046;-86
2022/03/04 05:08:37;;;;;;;17.60;10.02;;;1.90;75.00;;;;;;2063410;28;20093;-86
2022/03/04 05:09:37;;;;;;;19.20;11.13;;;1.90;75.70;;;;;;2060976;28;20038;-85
2022/03/04 05:10:38;;;;;;;21.30;10.65;;;1.90;75.20;;;;;;2062978;28;20042;-86
2022/03/04 05:11:39;;;;;;;17.33;9.57;;;1.90;75.80;;;;;;2063263;28;20098;-86
2022/03/04 05:12:40;;;;;;;19.63;11.32;;;1.90;75.30;;;;;;2061121;28;20173;-86
2022/03/04 05:13:40;;;;;;;16.52;9.70;;;1.90;75.30;;;;;;2061993;28;20066;-86
2022/03/04 05:14:41;;;;;;;17.98;9.93;;;1.90;75.40;;;;;;2070128;28;20032;-86